sensor_id;sensor_type;location;lat;lon;timestamp;temperature;humidity
22558;DHT22;11445;53.816;8.902;2023-04-25T00:00:04;7.90;99.90
22558;DHT22;11445;53.816;8.902;2023-04-25T00:02:32;7.80;99.90
22558;DHT22;11445;53.816;8.902;2023-04-25T00:05:00;7.90;99.90
22558;DHT22;11445;53.816;8.902;2023-04-25T00:07:27;7.80;99.90
22558;DHT22;11445;53.816;8.902;2023-04-25T00:09:54;7.80;99.90
22558;DHT22;11445;53.816;8.902;2023-04-25T00:12:21;7.80;99.90
22558;DHT22;11445;53.816;8.902;2023-04-25T00:14:49;7.80;99.90
22558;DHT22;11445;53.816;8.902;2023-04-25T00:17:18;7.80;99.90
22558;DHT22;11445;53.816;8.902;2023-04-25T00:19:45;7.80;99.90
22558;DHT22;11445;53.816;8.902;2023-04-25T00:22:13;7.70;99.90
22558;DHT22;11445;53.816;8.902;2023-04-25T00:24:40;7.80;99.90
22558;DHT22;11445;53.816;8.902;2023-04-25T00:27:07;7.80;99.90
22558;DHT22;11445;53.816;8.902;2023-04-25T00:29:34;7.70;99.90
22558;DHT22;11445;53.816;8.902;2023-04-25T00:32:01;7.80;99.90
22558;DHT22;11445;53.816;8.902;2023-04-25T00:34:30;7.70;99.90
22558;DHT22;11445;53.816;8.902;2023-04-25T00:36:57;7.70;99.90
22558;DHT22;11445;53.816;8.902;2023-04-25T00:39:24;7.70;99.90
22558;DHT22;11445;53.816;8.902;2023-04-25T00:41:51;7.70;99.90
22558;DHT22;11445;53.816;8.902;2023-04-25T00:44:20;7.70;99.90
22558;DHT22;11445;53.816;8.902;2023-04-25T00:46:47;7.70;99.90
22558;DHT22;11445;53.816;8.902;2023-04-25T00:49:15;7.70;99.90
22558;DHT22;11445;53.816;8.902;2023-04-25T00:51:43;7.70;99.90
22558;DHT22;11445;53.816;8.902;2023-04-25T00:54:12;7.70;99.90
22558;DHT22;11445;53.816;8.902;2023-04-25T00:56:39;7.60;99.90
22558;DHT22;11445;53.816;8.902;2023-04-25T00:59:07;7.60;99.90
22558;DHT22;11445;53.816;8.902;2023-04-25T01:01:35;7.60;99.90
22558;DHT22;11445;53.816;8.902;2023-04-25T01:04:03;7.60;99.90
22558;DHT22;11445;53.816;8.902;2023-04-25T01:06:30;7.50;99.90
22558;DHT22;11445;53.816;8.902;2023-04-25T01:08:59;7.50;99.90
22558;DHT22;11445;53.816;8.902;2023-04-25T01:11:26;7.50;99.90
22558;DHT22;11445;53.816;8.902;2023-04-25T01:13:53;7.50;99.90
22558;DHT22;11445;53.816;8.902;2023-04-25T01:16:21;7.60;99.90
22558;DHT22;11445;53.816;8.902;2023-04-25T01:18:49;7.60;99.90
22558;DHT22;11445;53.816;8.902;2023-04-25T01:21:18;7.60;99.90
22558;DHT22;11445;53.816;8.902;2023-04-25T01:23:45;7.60;99.90
22558;DHT22;11445;53.816;8.902;2023-04-25T01:26:13;7.60;99.90
22558;DHT22;11445;53.816;8.902;2023-04-25T01:28:40;7.50;99.90
22558;DHT22;11445;53.816;8.902;2023-04-25T01:31:07;7.50;99.90
22558;DHT22;11445;53.816;8.902;2023-04-25T01:33:35;7.50;99.90
22558;DHT22;11445;53.816;8.902;2023-04-25T01:36:03;7.40;99.90
22558;DHT22;11445;53.816;8.902;2023-04-25T01:38:31;7.40;99.90
22558;DHT22;11445;53.816;8.902;2023-04-25T01:40:58;7.40;99.90
22558;DHT22;11445;53.816;8.902;2023-04-25T01:43:26;7.40;99.90
22558;DHT22;11445;53.816;8.902;2023-04-25T01:45:53;7.40;99.90
22558;DHT22;11445;53.816;8.902;2023-04-25T01:48:20;7.30;99.90
22558;DHT22;11445;53.816;8.902;2023-04-25T01:50:47;7.40;99.90
22558;DHT22;11445;53.816;8.902;2023-04-25T01:53:14;7.30;99.90
22558;DHT22;11445;53.816;8.902;2023-04-25T01:55:43;7.30;99.90
22558;DHT22;11445;53.816;8.902;2023-04-25T01:58:10;7.20;99.90
22558;DHT22;11445;53.816;8.902;2023-04-25T02:00:38;7.20;99.90
22558;DHT22;11445;53.816;8.902;2023-04-25T02:03:07;7.20;99.90
22558;DHT22;11445;53.816;8.902;2023-04-25T02:05:35;7.20;99.90
22558;DHT22;11445;53.816;8.902;2023-04-25T02:08:03;7.20;99.90
22558;DHT22;11445;53.816;8.902;2023-04-25T02:10:30;7.10;99.90
22558;DHT22;11445;53.816;8.902;2023-04-25T02:12:59;7.10;99.90
22558;DHT22;11445;53.816;8.902;2023-04-25T02:15:26;7.10;99.90
22558;DHT22;11445;53.816;8.902;2023-04-25T02:17:53;7.10;99.90
22558;DHT22;11445;53.816;8.902;2023-04-25T02:20:22;7.20;99.90
22558;DHT22;11445;53.816;8.902;2023-04-25T02:22:49;7.20;99.90
22558;DHT22;11445;53.816;8.902;2023-04-25T02:25:17;7.20;99.90
22558;DHT22;11445;53.816;8.902;2023-04-25T02:27:45;7.20;99.90
22558;DHT22;11445;53.816;8.902;2023-04-25T02:30:14;7.20;99.90
22558;DHT22;11445;53.816;8.902;2023-04-25T02:32:41;7.30;99.90
22558;DHT22;11445;53.816;8.902;2023-04-25T02:35:09;7.30;99.90
22558;DHT22;11445;53.816;8.902;2023-04-25T02:37:37;7.30;99.90
22558;DHT22;11445;53.816;8.902;2023-04-25T02:40:05;7.30;99.90
22558;DHT22;11445;53.816;8.902;2023-04-25T02:42:33;7.20;99.90
22558;DHT22;11445;53.816;8.902;2023-04-25T02:45:00;7.20;99.90
22558;DHT22;11445;53.816;8.902;2023-04-25T02:47:29;7.20;99.90
22558;DHT22;11445;53.816;8.902;2023-04-25T02:49:56;7.20;99.90
22558;DHT22;11445;53.816;8.902;2023-04-25T02:52:23;7.20;99.90
22558;DHT22;11445;53.816;8.902;2023-04-25T02:54:50;7.20;99.90
22558;DHT22;11445;53.816;8.902;2023-04-25T02:57:17;7.10;99.90
22558;DHT22;11445;53.816;8.902;2023-04-25T02:59:44;7.10;99.90
22558;DHT22;11445;53.816;8.902;2023-04-25T03:02:11;7.10;99.90
22558;DHT22;11445;53.816;8.902;2023-04-25T03:04:39;7.10;99.90
22558;DHT22;11445;53.816;8.902;2023-04-25T03:07:07;7.00;99.90
22558;DHT22;11445;53.816;8.902;2023-04-25T03:09:34;7.10;99.90
22558;DHT22;11445;53.816;8.902;2023-04-25T03:12:01;7.10;99.90
22558;DHT22;11445;53.816;8.902;2023-04-25T03:14:28;7.00;99.90
22558;DHT22;11445;53.816;8.902;2023-04-25T03:16:55;7.00;99.90
22558;DHT22;11445;53.816;8.902;2023-04-25T03:19:22;7.10;99.90
22558;DHT22;11445;53.816;8.902;2023-04-25T03:21:51;7.10;99.90
22558;DHT22;11445;53.816;8.902;2023-04-25T03:24:19;7.10;99.90
22558;DHT22;11445;53.816;8.902;2023-04-25T03:26:46;7.10;99.90
22558;DHT22;11445;53.816;8.902;2023-04-25T03:29:13;7.10;99.90
22558;DHT22;11445;53.816;8.902;2023-04-25T03:31:40;7.10;99.90
22558;DHT22;11445;53.816;8.902;2023-04-25T03:34:07;7.10;99.90
22558;DHT22;11445;53.816;8.902;2023-04-25T03:36:34;7.10;99.90
22558;DHT22;11445;53.816;8.902;2023-04-25T03:39:03;7.20;99.90
22558;DHT22;11445;53.816;8.902;2023-04-25T03:41:30;7.10;99.90
22558;DHT22;11445;53.816;8.902;2023-04-25T03:43:57;7.10;99.90
22558;DHT22;11445;53.816;8.902;2023-04-25T03:46:24;7.20;99.90
22558;DHT22;11445;53.816;8.902;2023-04-25T03:48:51;7.10;99.90
22558;DHT22;11445;53.816;8.902;2023-04-25T03:51:18;7.00;99.90
22558;DHT22;11445;53.816;8.902;2023-04-25T03:53:45;6.90;99.90
22558;DHT22;11445;53.816;8.902;2023-04-25T03:56:13;7.00;99.90
22558;DHT22;11445;53.816;8.902;2023-04-25T03:58:40;7.00;99.90
22558;DHT22;11445;53.816;8.902;2023-04-25T04:01:08;6.90;99.90
22558;DHT22;11445;53.816;8.902;2023-04-25T04:03:35;6.80;99.90
22558;DHT22;11445;53.816;8.902;2023-04-25T04:06:03;6.70;99.90
22558;DHT22;11445;53.816;8.902;2023-04-25T04:08:31;6.60;99.90
22558;DHT22;11445;53.816;8.902;2023-04-25T04:10:58;6.40;99.90
22558;DHT22;11445;53.816;8.902;2023-04-25T04:13:27;6.30;99.90
22558;DHT22;11445;53.816;8.902;2023-04-25T04:15:55;6.20;99.90
22558;DHT22;11445;53.816;8.902;2023-04-25T04:18:23;6.10;99.90
22558;DHT22;11445;53.816;8.902;2023-04-25T04:20:50;6.10;99.90
22558;DHT22;11445;53.816;8.902;2023-04-25T04:23:17;6.20;99.90
22558;DHT22;11445;53.816;8.902;2023-04-25T04:25:44;6.30;99.90
22558;DHT22;11445;53.816;8.902;2023-04-25T04:28:12;6.30;99.90
22558;DHT22;11445;53.816;8.902;2023-04-25T04:30:40;6.30;99.90
22558;DHT22;11445;53.816;8.902;2023-04-25T04:33:08;6.30;99.90
22558;DHT22;11445;53.816;8.902;2023-04-25T04:35:35;6.40;99.90
22558;DHT22;11445;53.816;8.902;2023-04-25T04:38:02;6.40;99.90
22558;DHT22;11445;53.816;8.902;2023-04-25T04:40:29;6.40;99.90
22558;DHT22;11445;53.816;8.902;2023-04-25T04:42:57;6.50;99.90
22558;DHT22;11445;53.816;8.902;2023-04-25T04:45:24;6.50;99.90
22558;DHT22;11445;53.816;8.902;2023-04-25T04:47:54;6.50;99.90
22558;DHT22;11445;53.816;8.902;2023-04-25T04:50:22;6.50;99.90
22558;DHT22;11445;53.816;8.902;2023-04-25T04:52:49;6.60;99.90
22558;DHT22;11445;53.816;8.902;2023-04-25T04:55:16;6.60;99.90
22558;DHT22;11445;53.816;8.902;2023-04-25T04:57:43;6.60;99.90
22558;DHT22;11445;53.816;8.902;2023-04-25T05:00:11;6.60;99.90
22558;DHT22;11445;53.816;8.902;2023-04-25T05:02:39;6.60;99.90
22558;DHT22;11445;53.816;8.902;2023-04-25T05:05:08;6.60;99.90
22558;DHT22;11445;53.816;8.902;2023-04-25T05:07:35;6.50;99.90
22558;DHT22;11445;53.816;8.902;2023-04-25T05:10:03;6.50;99.90
22558;DHT22;11445;53.816;8.902;2023-04-25T05:12:30;6.50;99.90
22558;DHT22;11445;53.816;8.902;2023-04-25T05:14:57;6.50;99.90
22558;DHT22;11445;53.816;8.902;2023-04-25T05:17:24;6.40;99.90
22558;DHT22;11445;53.816;8.902;2023-04-25T05:19:51;6.40;99.90
22558;DHT22;11445;53.816;8.902;2023-04-25T05:22:20;6.40;99.90
22558;DHT22;11445;53.816;8.902;2023-04-25T05:24:47;6.50;99.90
22558;DHT22;11445;53.816;8.902;2023-04-25T05:27:16;6.50;99.90
22558;DHT22;11445;53.816;8.902;2023-04-25T05:29:44;6.50;99.90
22558;DHT22;11445;53.816;8.902;2023-04-25T05:32:11;6.50;99.90
22558;DHT22;11445;53.816;8.902;2023-04-25T05:34:38;6.60;99.90
22558;DHT22;11445;53.816;8.902;2023-04-25T05:37:05;6.60;99.90
22558;DHT22;11445;53.816;8.902;2023-04-25T05:39:33;6.60;99.90
22558;DHT22;11445;53.816;8.902;2023-04-25T05:42:00;6.60;99.90
22558;DHT22;11445;53.816;8.902;2023-04-25T05:44:30;6.60;99.90
22558;DHT22;11445;53.816;8.902;2023-04-25T05:46:57;6.60;99.90
22558;DHT22;11445;53.816;8.902;2023-04-25T05:49:24;6.60;99.90
22558;DHT22;11445;53.816;8.902;2023-04-25T05:51:51;6.60;99.90
22558;DHT22;11445;53.816;8.902;2023-04-25T05:54:18;6.60;99.90
22558;DHT22;11445;53.816;8.902;2023-04-25T05:56:47;6.60;99.90
22558;DHT22;11445;53.816;8.902;2023-04-25T05:59:14;6.60;99.90
22558;DHT22;11445;53.816;8.902;2023-04-25T06:01:42;6.60;99.90
22558;DHT22;11445;53.816;8.902;2023-04-25T06:04:09;6.60;99.90
22558;DHT22;11445;53.816;8.902;2023-04-25T06:06:36;6.60;99.90
22558;DHT22;11445;53.816;8.902;2023-04-25T06:09:03;6.50;99.90
22558;DHT22;11445;53.816;8.902;2023-04-25T06:11:30;6.60;99.90
22558;DHT22;11445;53.816;8.902;2023-04-25T06:13:58;6.60;99.90
22558;DHT22;11445;53.816;8.902;2023-04-25T06:16:25;6.60;99.90
22558;DHT22;11445;53.816;8.902;2023-04-25T06:18:52;6.60;99.90
22558;DHT22;11445;53.816;8.902;2023-04-25T06:21:19;6.70;99.90
22558;DHT22;11445;53.816;8.902;2023-04-25T06:23:46;6.70;99.90
22558;DHT22;11445;53.816;8.902;2023-04-25T06:26:14;6.70;99.90
22558;DHT22;11445;53.816;8.902;2023-04-25T06:28:41;6.80;99.90
22558;DHT22;11445;53.816;8.902;2023-04-25T06:31:09;6.90;99.90
22558;DHT22;11445;53.816;8.902;2023-04-25T06:33:36;7.00;99.90
22558;DHT22;11445;53.816;8.902;2023-04-25T06:36:03;7.10;99.90
22558;DHT22;11445;53.816;8.902;2023-04-25T06:38:30;7.20;99.90
22558;DHT22;11445;53.816;8.902;2023-04-25T06:40:57;7.20;99.90
22558;DHT22;11445;53.816;8.902;2023-04-25T06:43:24;7.20;99.90
22558;DHT22;11445;53.816;8.902;2023-04-25T06:45:51;7.20;99.90
22558;DHT22;11445;53.816;8.902;2023-04-25T06:48:20;7.30;99.90
22558;DHT22;11445;53.816;8.902;2023-04-25T06:50:47;7.20;99.90
22558;DHT22;11445;53.816;8.902;2023-04-25T06:53:14;7.30;99.90
22558;DHT22;11445;53.816;8.902;2023-04-25T06:55:41;7.20;99.90
22558;DHT22;11445;53.816;8.902;2023-04-25T06:58:08;7.30;99.90
22558;DHT22;11445;53.816;8.902;2023-04-25T07:00:35;7.30;99.90
22558;DHT22;11445;53.816;8.902;2023-04-25T07:03:02;7.40;99.90
22558;DHT22;11445;53.816;8.902;2023-04-25T07:05:31;7.40;99.90
22558;DHT22;11445;53.816;8.902;2023-04-25T07:07:58;7.40;99.90
22558;DHT22;11445;53.816;8.902;2023-04-25T07:10:25;7.40;99.90
22558;DHT22;11445;53.816;8.902;2023-04-25T07:12:52;7.40;99.90
22558;DHT22;11445;53.816;8.902;2023-04-25T07:15:19;7.40;99.90
22558;DHT22;11445;53.816;8.902;2023-04-25T07:17:46;7.40;99.90
22558;DHT22;11445;53.816;8.902;2023-04-25T07:20:13;7.40;99.90
22558;DHT22;11445;53.816;8.902;2023-04-25T07:22:43;7.50;99.90
22558;DHT22;11445;53.816;8.902;2023-04-25T07:25:10;7.50;99.90
22558;DHT22;11445;53.816;8.902;2023-04-25T07:27:37;7.60;99.90
22558;DHT22;11445;53.816;8.902;2023-04-25T07:30:06;7.50;99.90
22558;DHT22;11445;53.816;8.902;2023-04-25T07:32:33;7.50;99.90
22558;DHT22;11445;53.816;8.902;2023-04-25T07:35:00;7.40;99.90
22558;DHT22;11445;53.816;8.902;2023-04-25T07:37:27;7.20;99.90
22558;DHT22;11445;53.816;8.902;2023-04-25T07:39:55;6.90;99.90
22558;DHT22;11445;53.816;8.902;2023-04-25T07:42:22;6.80;99.90
22558;DHT22;11445;53.816;8.902;2023-04-25T07:44:49;6.50;99.90
22558;DHT22;11445;53.816;8.902;2023-04-25T07:47:17;6.40;99.90
22558;DHT22;11445;53.816;8.902;2023-04-25T07:49:45;6.30;99.90
22558;DHT22;11445;53.816;8.902;2023-04-25T07:52:13;6.20;99.90
22558;DHT22;11445;53.816;8.902;2023-04-25T07:54:40;6.30;99.90
22558;DHT22;11445;53.816;8.902;2023-04-25T07:57:08;6.40;99.90
22558;DHT22;11445;53.816;8.902;2023-04-25T07:59:35;6.40;99.90
22558;DHT22;11445;53.816;8.902;2023-04-25T08:02:02;6.50;99.90
22558;DHT22;11445;53.816;8.902;2023-04-25T08:04:29;6.50;99.90
22558;DHT22;11445;53.816;8.902;2023-04-25T08:06:56;6.60;99.90
22558;DHT22;11445;53.816;8.902;2023-04-25T08:09:23;6.70;99.90
22558;DHT22;11445;53.816;8.902;2023-04-25T08:11:50;6.80;99.90
22558;DHT22;11445;53.816;8.902;2023-04-25T08:14:19;6.80;99.90
22558;DHT22;11445;53.816;8.902;2023-04-25T08:16:46;6.90;99.90
22558;DHT22;11445;53.816;8.902;2023-04-25T08:19:13;6.90;99.90
22558;DHT22;11445;53.816;8.902;2023-04-25T08:21:40;6.90;99.90
22558;DHT22;11445;53.816;8.902;2023-04-25T08:24:07;6.70;99.90
22558;DHT22;11445;53.816;8.902;2023-04-25T08:26:34;6.60;99.90
22558;DHT22;11445;53.816;8.902;2023-04-25T08:29:02;6.50;99.90
22558;DHT22;11445;53.816;8.902;2023-04-25T08:31:31;6.30;99.90
22558;DHT22;11445;53.816;8.902;2023-04-25T08:33:58;6.20;99.90
22558;DHT22;11445;53.816;8.902;2023-04-25T08:36:25;6.30;99.90
22558;DHT22;11445;53.816;8.902;2023-04-25T08:38:53;6.40;99.90
22558;DHT22;11445;53.816;8.902;2023-04-25T08:41:21;6.50;99.90
22558;DHT22;11445;53.816;8.902;2023-04-25T08:43:49;6.70;99.90
22558;DHT22;11445;53.816;8.902;2023-04-25T08:46:18;6.80;99.90
22558;DHT22;11445;53.816;8.902;2023-04-25T08:48:47;7.00;99.90
22558;DHT22;11445;53.816;8.902;2023-04-25T08:51:17;7.10;99.90
22558;DHT22;11445;53.816;8.902;2023-04-25T08:53:49;7.30;99.90
22558;DHT22;11445;53.816;8.902;2023-04-25T08:56:17;7.30;99.90
22558;DHT22;11445;53.816;8.902;2023-04-25T08:58:48;7.40;99.90
22558;DHT22;11445;53.816;8.902;2023-04-25T09:01:15;7.50;99.90
22558;DHT22;11445;53.816;8.902;2023-04-25T09:03:42;7.50;99.90
22558;DHT22;11445;53.816;8.902;2023-04-25T09:06:12;7.50;99.90
22558;DHT22;11445;53.816;8.902;2023-04-25T09:08:39;7.60;99.90
22558;DHT22;11445;53.816;8.902;2023-04-25T09:11:06;7.60;99.90
22558;DHT22;11445;53.816;8.902;2023-04-25T09:13:34;7.50;99.90
22558;DHT22;11445;53.816;8.902;2023-04-25T09:16:01;7.60;99.90
22558;DHT22;11445;53.816;8.902;2023-04-25T09:18:29;7.60;99.90
22558;DHT22;11445;53.816;8.902;2023-04-25T09:20:58;7.60;99.90
22558;DHT22;11445;53.816;8.902;2023-04-25T09:23:27;7.60;99.90
22558;DHT22;11445;53.816;8.902;2023-04-25T09:25:54;7.70;99.90
22558;DHT22;11445;53.816;8.902;2023-04-25T09:28:25;7.80;99.90
22558;DHT22;11445;53.816;8.902;2023-04-25T09:30:55;7.90;99.90
22558;DHT22;11445;53.816;8.902;2023-04-25T09:33:27;8.00;99.90
22558;DHT22;11445;53.816;8.902;2023-04-25T09:36:02;8.00;99.90
22558;DHT22;11445;53.816;8.902;2023-04-25T09:38:32;8.00;99.90
22558;DHT22;11445;53.816;8.902;2023-04-25T09:41:06;8.10;99.90
22558;DHT22;11445;53.816;8.902;2023-04-25T09:43:33;8.10;99.90
22558;DHT22;11445;53.816;8.902;2023-04-25T09:46:00;8.20;99.90
22558;DHT22;11445;53.816;8.902;2023-04-25T09:48:28;8.30;99.90
22558;DHT22;11445;53.816;8.902;2023-04-25T09:51:13;8.30;99.90
22558;DHT22;11445;53.816;8.902;2023-04-25T09:53:43;8.30;99.90
22558;DHT22;11445;53.816;8.902;2023-04-25T09:56:12;8.30;99.90
22558;DHT22;11445;53.816;8.902;2023-04-25T09:58:40;8.30;99.90
22558;DHT22;11445;53.816;8.902;2023-04-25T10:01:09;8.40;99.90
22558;DHT22;11445;53.816;8.902;2023-04-25T10:03:37;8.40;99.90
22558;DHT22;11445;53.816;8.902;2023-04-25T10:06:08;8.40;99.90
22558;DHT22;11445;53.816;8.902;2023-04-25T10:08:37;8.50;99.90
22558;DHT22;11445;53.816;8.902;2023-04-25T10:11:08;8.50;99.90
22558;DHT22;11445;53.816;8.902;2023-04-25T10:13:35;8.50;99.90
22558;DHT22;11445;53.816;8.902;2023-04-25T10:16:04;8.40;99.90
22558;DHT22;11445;53.816;8.902;2023-04-25T10:18:32;8.30;99.90
22558;DHT22;11445;53.816;8.902;2023-04-25T10:21:00;8.20;99.90
22558;DHT22;11445;53.816;8.902;2023-04-25T10:23:29;8.10;99.90
22558;DHT22;11445;53.816;8.902;2023-04-25T10:25:57;8.20;99.90
22558;DHT22;11445;53.816;8.902;2023-04-25T10:28:25;8.20;99.90
22558;DHT22;11445;53.816;8.902;2023-04-25T10:30:57;8.30;99.90
22558;DHT22;11445;53.816;8.902;2023-04-25T10:33:34;8.30;99.90
22558;DHT22;11445;53.816;8.902;2023-04-25T10:36:09;8.30;99.90
22558;DHT22;11445;53.816;8.902;2023-04-25T10:38:37;8.30;99.90
22558;DHT22;11445;53.816;8.902;2023-04-25T10:41:05;8.30;99.90
22558;DHT22;11445;53.816;8.902;2023-04-25T10:43:36;8.30;99.90
22558;DHT22;11445;53.816;8.902;2023-04-25T10:46:13;8.20;99.90
22558;DHT22;11445;53.816;8.902;2023-04-25T10:48:48;8.30;99.90
22558;DHT22;11445;53.816;8.902;2023-04-25T10:51:18;8.40;99.90
22558;DHT22;11445;53.816;8.902;2023-04-25T10:53:45;8.50;99.90
22558;DHT22;11445;53.816;8.902;2023-04-25T10:56:17;8.60;99.90
22558;DHT22;11445;53.816;8.902;2023-04-25T10:58:47;8.60;99.90
22558;DHT22;11445;53.816;8.902;2023-04-25T11:01:15;8.60;99.90
22558;DHT22;11445;53.816;8.902;2023-04-25T11:03:43;8.60;99.90
22558;DHT22;11445;53.816;8.902;2023-04-25T11:06:18;8.60;99.90
22558;DHT22;11445;53.816;8.902;2023-04-25T11:08:49;8.70;99.90
22558;DHT22;11445;53.816;8.902;2023-04-25T11:11:17;8.60;99.90
22558;DHT22;11445;53.816;8.902;2023-04-25T11:13:44;8.60;99.90
22558;DHT22;11445;53.816;8.902;2023-04-25T11:16:15;8.60;99.90
22558;DHT22;11445;53.816;8.902;2023-04-25T11:18:42;8.60;99.90
22558;DHT22;11445;53.816;8.902;2023-04-25T11:21:10;8.70;99.90
22558;DHT22;11445;53.816;8.902;2023-04-25T11:23:37;8.70;99.90
22558;DHT22;11445;53.816;8.902;2023-04-25T11:26:04;8.80;99.90
22558;DHT22;11445;53.816;8.902;2023-04-25T11:28:31;8.80;99.90
22558;DHT22;11445;53.816;8.902;2023-04-25T11:30:58;8.80;99.90
22558;DHT22;11445;53.816;8.902;2023-04-25T11:33:27;8.80;99.90
22558;DHT22;11445;53.816;8.902;2023-04-25T11:35:54;8.90;99.90
22558;DHT22;11445;53.816;8.902;2023-04-25T11:38:22;8.80;99.90
22558;DHT22;11445;53.816;8.902;2023-04-25T11:40:50;8.70;99.90
22558;DHT22;11445;53.816;8.902;2023-04-25T11:43:19;8.60;99.90
22558;DHT22;11445;53.816;8.902;2023-04-25T11:45:47;8.60;99.90
22558;DHT22;11445;53.816;8.902;2023-04-25T11:48:14;8.60;99.90
22558;DHT22;11445;53.816;8.902;2023-04-25T11:50:43;8.80;99.90
22558;DHT22;11445;53.816;8.902;2023-04-25T11:53:10;8.90;99.90
22558;DHT22;11445;53.816;8.902;2023-04-25T11:55:38;9.10;99.90
22558;DHT22;11445;53.816;8.902;2023-04-25T11:58:05;9.20;99.90
22558;DHT22;11445;53.816;8.902;2023-04-25T12:00:34;9.30;99.90
22558;DHT22;11445;53.816;8.902;2023-04-25T12:03:01;9.40;99.90
22558;DHT22;11445;53.816;8.902;2023-04-25T12:05:30;9.40;99.90
22558;DHT22;11445;53.816;8.902;2023-04-25T12:08:09;9.30;99.90
22558;DHT22;11445;53.816;8.902;2023-04-25T12:10:38;9.40;99.90
22558;DHT22;11445;53.816;8.902;2023-04-25T12:13:20;9.30;99.90
22558;DHT22;11445;53.816;8.902;2023-04-25T12:15:47;9.40;99.90
22558;DHT22;11445;53.816;8.902;2023-04-25T12:18:14;9.40;99.90
22558;DHT22;11445;53.816;8.902;2023-04-25T12:20:41;9.40;99.90
22558;DHT22;11445;53.816;8.902;2023-04-25T12:23:10;9.50;99.90
22558;DHT22;11445;53.816;8.902;2023-04-25T12:25:39;9.50;99.90
22558;DHT22;11445;53.816;8.902;2023-04-25T12:28:16;9.40;99.90
22558;DHT22;11445;53.816;8.902;2023-04-25T12:30:55;9.50;99.90
22558;DHT22;11445;53.816;8.902;2023-04-25T12:33:23;9.40;99.90
22558;DHT22;11445;53.816;8.902;2023-04-25T12:35:50;9.40;99.90
22558;DHT22;11445;53.816;8.902;2023-04-25T12:38:23;9.40;99.90
22558;DHT22;11445;53.816;8.902;2023-04-25T12:40:51;9.40;99.90
22558;DHT22;11445;53.816;8.902;2023-04-25T12:43:18;9.30;99.90
22558;DHT22;11445;53.816;8.902;2023-04-25T12:45:47;9.10;99.90
22558;DHT22;11445;53.816;8.902;2023-04-25T12:48:14;9.00;99.90
22558;DHT22;11445;53.816;8.902;2023-04-25T12:50:41;8.80;99.90
22558;DHT22;11445;53.816;8.902;2023-04-25T12:53:08;8.60;99.90
22558;DHT22;11445;53.816;8.902;2023-04-25T12:55:36;8.50;99.90
22558;DHT22;11445;53.816;8.902;2023-04-25T12:58:03;8.50;99.90
22558;DHT22;11445;53.816;8.902;2023-04-25T13:00:30;8.50;99.90
22558;DHT22;11445;53.816;8.902;2023-04-25T13:02:58;8.40;99.90
22558;DHT22;11445;53.816;8.902;2023-04-25T13:05:25;8.40;99.90
22558;DHT22;11445;53.816;8.902;2023-04-25T13:07:52;8.40;99.90
22558;DHT22;11445;53.816;8.902;2023-04-25T13:10:19;8.40;99.90
22558;DHT22;11445;53.816;8.902;2023-04-25T13:12:48;8.50;99.90
22558;DHT22;11445;53.816;8.902;2023-04-25T13:15:15;8.70;99.90
22558;DHT22;11445;53.816;8.902;2023-04-25T13:17:42;8.80;99.90
22558;DHT22;11445;53.816;8.902;2023-04-25T13:20:10;9.00;99.90
22558;DHT22;11445;53.816;8.902;2023-04-25T13:22:37;8.90;99.90
22558;DHT22;11445;53.816;8.902;2023-04-25T13:25:06;8.70;99.90
22558;DHT22;11445;53.816;8.902;2023-04-25T13:27:35;8.70;99.90
22558;DHT22;11445;53.816;8.902;2023-04-25T13:30:04;8.70;99.90
22558;DHT22;11445;53.816;8.902;2023-04-25T13:32:33;8.70;99.90
22558;DHT22;11445;53.816;8.902;2023-04-25T13:35:02;8.70;99.90
22558;DHT22;11445;53.816;8.902;2023-04-25T13:37:30;8.70;99.90
22558;DHT22;11445;53.816;8.902;2023-04-25T13:39:59;8.60;99.90
22558;DHT22;11445;53.816;8.902;2023-04-25T13:42:29;8.70;99.90
22558;DHT22;11445;53.816;8.902;2023-04-25T13:44:56;8.80;99.90
22558;DHT22;11445;53.816;8.902;2023-04-25T13:47:25;8.90;99.90
22558;DHT22;11445;53.816;8.902;2023-04-25T13:49:53;8.90;99.90
22558;DHT22;11445;53.816;8.902;2023-04-25T13:52:20;8.80;99.90
22558;DHT22;11445;53.816;8.902;2023-04-25T13:54:49;8.70;99.90
22558;DHT22;11445;53.816;8.902;2023-04-25T13:57:17;8.60;99.90
22558;DHT22;11445;53.816;8.902;2023-04-25T13:59:44;8.30;99.90
22558;DHT22;11445;53.816;8.902;2023-04-25T14:02:11;8.40;99.90
22558;DHT22;11445;53.816;8.902;2023-04-25T14:04:40;8.40;99.90
22558;DHT22;11445;53.816;8.902;2023-04-25T14:07:07;8.40;99.90
22558;DHT22;11445;53.816;8.902;2023-04-25T14:09:38;8.60;99.90
22558;DHT22;11445;53.816;8.902;2023-04-25T14:12:05;8.60;99.90
22558;DHT22;11445;53.816;8.902;2023-04-25T14:14:32;8.80;99.90
22558;DHT22;11445;53.816;8.902;2023-04-25T14:16:59;8.90;99.90
22558;DHT22;11445;53.816;8.902;2023-04-25T14:19:26;9.10;99.90
22558;DHT22;11445;53.816;8.902;2023-04-25T14:21:55;9.20;99.90
22558;DHT22;11445;53.816;8.902;2023-04-25T14:24:23;9.30;99.90
22558;DHT22;11445;53.816;8.902;2023-04-25T14:26:50;9.40;99.90
22558;DHT22;11445;53.816;8.902;2023-04-25T14:29:17;9.30;99.90
22558;DHT22;11445;53.816;8.902;2023-04-25T14:31:44;9.20;99.90
22558;DHT22;11445;53.816;8.902;2023-04-25T14:34:11;9.00;99.90
22558;DHT22;11445;53.816;8.902;2023-04-25T14:36:38;8.90;99.90
22558;DHT22;11445;53.816;8.902;2023-04-25T14:39:07;8.80;99.90
22558;DHT22;11445;53.816;8.902;2023-04-25T14:41:34;8.80;99.90
22558;DHT22;11445;53.816;8.902;2023-04-25T14:44:01;8.90;99.90
22558;DHT22;11445;53.816;8.902;2023-04-25T14:46:28;8.90;99.90
22558;DHT22;11445;53.816;8.902;2023-04-25T14:48:56;9.00;99.90
22558;DHT22;11445;53.816;8.902;2023-04-25T14:51:23;9.20;99.90
22558;DHT22;11445;53.816;8.902;2023-04-25T14:53:52;9.10;99.90
22558;DHT22;11445;53.816;8.902;2023-04-25T14:56:20;9.10;99.90
22558;DHT22;11445;53.816;8.902;2023-04-25T14:58:47;9.00;99.90
22558;DHT22;11445;53.816;8.902;2023-04-25T15:01:14;8.80;99.90
22558;DHT22;11445;53.816;8.902;2023-04-25T15:03:41;8.50;99.90
22558;DHT22;11445;53.816;8.902;2023-04-25T15:06:08;8.40;99.90
22558;DHT22;11445;53.816;8.902;2023-04-25T15:08:36;8.30;99.90
22558;DHT22;11445;53.816;8.902;2023-04-25T15:11:03;8.10;99.90
22558;DHT22;11445;53.816;8.902;2023-04-25T15:13:31;8.10;99.90
22558;DHT22;11445;53.816;8.902;2023-04-25T15:16:00;8.20;99.90
22558;DHT22;11445;53.816;8.902;2023-04-25T15:18:27;8.30;99.90
22558;DHT22;11445;53.816;8.902;2023-04-25T15:20:54;8.40;99.90
22558;DHT22;11445;53.816;8.902;2023-04-25T15:23:21;8.50;99.90
22558;DHT22;11445;53.816;8.902;2023-04-25T15:25:50;8.60;99.90
22558;DHT22;11445;53.816;8.902;2023-04-25T15:28:17;8.60;99.90
22558;DHT22;11445;53.816;8.902;2023-04-25T15:30:48;8.70;99.90
22558;DHT22;11445;53.816;8.902;2023-04-25T15:33:16;8.70;99.90
22558;DHT22;11445;53.816;8.902;2023-04-25T15:35:43;8.80;99.90
22558;DHT22;11445;53.816;8.902;2023-04-25T15:38:10;8.80;99.90
22558;DHT22;11445;53.816;8.902;2023-04-25T15:40:37;8.80;99.90
22558;DHT22;11445;53.816;8.902;2023-04-25T15:43:04;8.90;99.90
22558;DHT22;11445;53.816;8.902;2023-04-25T15:45:32;9.00;99.90
22558;DHT22;11445;53.816;8.902;2023-04-25T15:48:01;8.90;99.90